createdAt,value
2018-09-05T00:00:43.719Z,42.67
2018-09-05T00:01:47.936Z,40.85
2018-09-05T00:02:52.330Z,37.80
2018-09-05T00:03:56.489Z,39.42
2018-09-05T00:05:01.144Z,43.30
2018-09-05T00:06:05.449Z,42.45
2018-09-05T00:07:09.677Z,39.25
2018-09-05T00:08:13.877Z,40.67
2018-09-05T00:09:18.090Z,38.80
2018-09-05T00:10:22.314Z,40.73
2018-09-05T00:11:26.470Z,39.15
2018-09-05T00:12:30.810Z,40.70
2018-09-05T00:13:34.994Z,37.98
2018-09-05T00:14:39.176Z,40.80
2018-09-05T00:15:43.322Z,38.73
2018-09-05T00:16:47.524Z,38.65
2018-09-05T00:17:51.679Z,39.88
2018-09-05T00:18:56.043Z,40.10
2018-09-05T00:20:00.283Z,40.78
2018-09-05T00:21:04.445Z,38.10
2018-09-05T00:22:08.605Z,41.45
2018-09-05T00:23:13.020Z,39.03
2018-09-05T00:24:17.197Z,36.85
2018-09-05T00:25:21.443Z,40.78
2018-09-05T00:26:25.727Z,41.83
2018-09-05T00:27:29.940Z,42.75
2018-09-05T00:28:34.170Z,42.27
2018-09-05T00:29:38.415Z,44.20
2018-09-05T00:30:42.576Z,43.38
2018-09-05T00:31:46.735Z,43.38
2018-09-05T00:32:50.947Z,44.88
2018-09-05T00:33:55.306Z,45.35
2018-09-05T00:34:59.554Z,43.15
2018-09-05T00:36:03.888Z,45.40
2018-09-05T00:37:08.195Z,44.70
2018-09-05T00:38:12.326Z,45.63
2018-09-05T00:39:16.530Z,45.12
2018-09-05T00:40:20.850Z,46.48
2018-09-05T00:41:25.133Z,44.90
2018-09-05T00:42:29.301Z,45.25
2018-09-05T00:43:33.528Z,47.00
2018-09-05T00:44:37.662Z,45.20
2018-09-05T00:45:42.168Z,43.23
2018-09-05T00:46:46.477Z,43.92
2018-09-05T00:47:50.672Z,46.13
2018-09-05T00:48:55.168Z,44.20
2018-09-05T00:49:59.776Z,42.85
2018-09-05T00:51:04.015Z,45.35
2018-09-05T00:52:08.259Z,45.80
2018-09-05T00:53:12.434Z,43.83
2018-09-05T00:54:16.705Z,42.00
2018-09-05T00:55:20.871Z,39.78
2018-09-05T00:56:25.035Z,41.20
2018-09-05T00:57:29.307Z,43.83
2018-09-05T00:58:33.554Z,43.25
2018-09-05T00:59:37.907Z,43.02
2018-09-05T01:00:42.073Z,42.25
2018-09-05T01:01:46.276Z,42.75
2018-09-05T01:02:50.500Z,45.75
2018-09-05T01:03:54.662Z,43.73
2018-09-05T01:04:58.897Z,44.03
2018-09-05T01:06:03.375Z,43.55
2018-09-05T01:07:18.743Z,40.15
2018-09-05T01:08:22.903Z,45.25
2018-09-05T01:09:27.283Z,49.93
2018-09-05T01:10:31.473Z,51.28
2018-09-05T01:11:35.681Z,52.38
2018-09-05T01:12:39.971Z,50.98
2018-09-05T01:13:44.198Z,48.52
2018-09-05T01:14:49.264Z,49.85
2018-09-05T01:15:53.466Z,49.98
2018-09-05T01:16:57.631Z,51.28
2018-09-05T01:18:02.000Z,52.65
2018-09-05T01:19:06.214Z,49.95
2018-09-05T01:20:10.653Z,52.53
2018-09-05T01:21:14.899Z,51.18
2018-09-05T01:22:19.147Z,50.73
2018-09-05T01:23:23.428Z,52.65
2018-09-05T01:24:28.010Z,53.48
2018-09-05T01:25:32.159Z,52.75
2018-09-05T01:26:36.331Z,51.88
2018-09-05T01:27:40.535Z,57.38
2018-09-05T01:28:44.787Z,58.33
2018-09-05T01:29:49.325Z,56.40
2018-09-05T01:30:53.550Z,58.25
2018-09-05T01:31:57.750Z,58.80
2018-09-05T01:33:01.929Z,56.37
2018-09-05T01:34:06.127Z,56.70
2018-09-05T01:35:10.554Z,53.45
2018-09-05T01:36:16.352Z,54.50
2018-09-05T01:37:20.507Z,53.23
2018-09-05T01:38:24.982Z,52.90
2018-09-05T01:39:29.236Z,51.90
2018-09-05T01:40:33.443Z,53.20
2018-09-05T01:41:37.707Z,52.48
2018-09-05T01:42:41.850Z,47.83
2018-09-05T01:43:46.118Z,54.58
2018-09-05T01:44:50.353Z,53.70
2018-09-05T01:45:54.687Z,49.60
2018-09-05T01:46:59.102Z,52.00
2018-09-05T01:48:03.288Z,47.98
2018-09-05T01:49:07.465Z,50.83
2018-09-05T01:50:11.788Z,49.27
2018-09-05T01:51:15.944Z,50.35
2018-09-05T01:52:20.095Z,53.40
2018-09-05T01:53:24.297Z,48.25
2018-09-05T01:54:28.492Z,53.70
2018-09-05T01:55:32.734Z,50.48
2018-09-05T01:56:36.909Z,51.90
2018-09-05T01:57:41.150Z,48.95
2018-09-05T01:58:45.377Z,49.60
2018-09-05T01:59:49.606Z,49.48
2018-09-05T02:00:53.837Z,51.10
2018-09-05T02:01:58.021Z,49.30
2018-09-05T02:03:03.088Z,50.52
2018-09-05T02:04:07.476Z,51.50
2018-09-05T02:05:11.939Z,50.08
2018-09-05T02:06:16.166Z,50.58
2018-09-05T02:07:20.476Z,49.05
2018-09-05T02:08:24.872Z,52.08
2018-09-05T02:09:29.090Z,48.38
2018-09-05T02:10:33.294Z,47.13
2018-09-05T02:11:37.494Z,51.23
2018-09-05T02:12:41.702Z,48.63
2018-09-05T02:13:46.388Z,48.20
2018-09-05T02:14:50.659Z,49.03
2018-09-05T02:15:54.863Z,47.53
2018-09-05T02:16:59.106Z,48.48
2018-09-05T02:18:03.401Z,51.33
2018-09-05T02:19:07.606Z,48.95
2018-09-05T02:20:11.800Z,48.75
2018-09-05T02:21:16.012Z,48.58
2018-09-05T02:22:20.222Z,48.55
2018-09-05T02:23:24.398Z,49.75
2018-09-05T02:24:28.569Z,47.73
2018-09-05T02:25:32.884Z,48.28
2018-09-05T02:26:37.099Z,47.65
2018-09-05T02:27:41.475Z,48.30
2018-09-05T02:28:45.683Z,48.08
2018-09-05T02:29:49.909Z,46.05
2018-09-05T02:30:54.336Z,48.28
2018-09-05T02:31:58.627Z,46.83
2018-09-05T02:33:02.890Z,47.93
2018-09-05T02:34:07.137Z,48.87
2018-09-05T02:35:11.311Z,48.70
2018-09-05T02:36:15.477Z,45.30
2018-09-05T02:37:19.695Z,47.80
2018-09-05T02:38:23.889Z,47.38
2018-09-05T02:39:28.060Z,47.75
2018-09-05T02:40:32.324Z,48.73
2018-09-05T02:41:36.679Z,48.75
2018-09-05T02:42:40.865Z,45.40
2018-09-05T02:43:50.435Z,45.35
2018-09-05T02:44:54.634Z,45.03
2018-09-05T02:45:59.162Z,45.20
2018-09-05T02:47:03.646Z,45.90
2018-09-05T02:48:07.842Z,44.85
2018-09-05T02:49:12.040Z,41.85
2018-09-05T02:50:16.293Z,45.55
2018-09-05T02:51:20.465Z,44.75
2018-09-05T02:52:24.686Z,46.10
2018-09-05T02:53:28.892Z,44.58
2018-09-05T02:54:33.075Z,44.03
2018-09-05T02:55:42.505Z,45.85
2018-09-05T02:56:46.662Z,45.03
2018-09-05T02:57:50.818Z,43.68
2018-09-05T02:58:55.029Z,46.02
2018-09-05T02:59:59.223Z,43.75
2018-09-05T03:01:03.488Z,40.52
2018-09-05T03:02:07.643Z,43.08
2018-09-05T03:03:11.836Z,43.68
2018-09-05T03:04:16.147Z,44.55
2018-09-05T03:05:20.518Z,45.92
2018-09-05T03:06:24.791Z,41.55
2018-09-05T03:07:28.964Z,45.67
2018-09-05T03:08:33.131Z,45.60
2018-09-05T03:09:37.743Z,42.10
2018-09-05T03:10:41.934Z,46.02
2018-09-05T03:11:46.109Z,44.55
2018-09-05T03:12:50.241Z,44.90
2018-09-05T03:13:54.421Z,44.50
2018-09-05T03:14:59.155Z,44.30
2018-09-05T03:16:03.438Z,45.45
2018-09-05T03:17:07.690Z,44.73
2018-09-05T03:18:12.143Z,44.55
2018-09-05T03:19:16.307Z,45.67
2018-09-05T03:20:20.553Z,46.53
2018-09-05T03:21:24.928Z,46.42
2018-09-05T03:22:29.186Z,46.65
2018-09-05T03:23:33.410Z,46.23
2018-09-05T03:24:37.607Z,47.55
2018-09-05T03:25:41.799Z,48.00
2018-09-05T03:26:46.219Z,46.35
2018-09-05T03:27:50.369Z,45.75
2018-09-05T03:28:54.557Z,48.52
2018-09-05T03:29:58.755Z,46.25
2018-09-05T03:31:02.946Z,47.05
2018-09-05T03:32:07.189Z,45.78
2018-09-05T03:33:11.420Z,46.83
2018-09-05T03:34:15.516Z,46.83
2018-09-05T03:35:19.709Z,46.23
2018-09-05T03:36:23.939Z,47.35
2018-09-05T03:37:28.194Z,45.65
2018-09-05T03:38:32.362Z,46.73
2018-09-05T03:39:36.657Z,44.30
2018-09-05T03:40:41.010Z,48.78
2018-09-05T03:41:45.172Z,46.50
2018-09-05T03:42:49.467Z,46.90
2018-09-05T03:43:53.719Z,48.23
2018-09-05T03:44:58.290Z,45.95
2018-09-05T03:46:02.471Z,45.90
2018-09-05T03:47:07.043Z,49.53
2018-09-05T03:48:11.484Z,48.45
2018-09-05T03:49:15.666Z,50.12
2018-09-05T03:50:19.849Z,46.35
2018-09-05T03:51:24.040Z,48.42
2018-09-05T03:52:28.189Z,47.30
2018-09-05T03:53:32.647Z,48.73
2018-09-05T03:54:36.781Z,46.15
2018-09-05T03:55:40.975Z,45.70
2018-09-05T03:56:45.186Z,47.15
2018-09-05T03:57:49.389Z,46.20
2018-09-05T03:58:53.633Z,45.83
2018-09-05T03:59:57.871Z,49.10
2018-09-05T04:01:02.075Z,46.75
2018-09-05T04:02:06.294Z,47.58
2018-09-05T04:03:10.825Z,50.10
2018-09-05T04:04:15.212Z,46.30
2018-09-05T04:05:19.455Z,47.25
2018-09-05T04:06:23.803Z,47.08
2018-09-05T04:07:28.524Z,47.48
2018-09-05T04:08:32.722Z,44.45
2018-09-05T04:09:36.939Z,42.17
2018-09-05T04:10:41.221Z,43.45
2018-09-05T04:11:45.474Z,46.70
2018-09-05T04:12:49.673Z,45.67
2018-09-05T04:13:53.902Z,45.05
2018-09-05T04:14:58.131Z,44.70
2018-09-05T04:16:02.522Z,43.95
2018-09-05T04:17:06.842Z,45.92
2018-09-05T04:18:11.088Z,46.50
2018-09-05T04:19:15.423Z,44.38
2018-09-05T04:20:19.879Z,44.58
2018-09-05T04:21:24.061Z,45.30
2018-09-05T04:22:28.234Z,44.27
2018-09-05T04:23:47.993Z,43.30
2018-09-05T04:24:52.215Z,45.00
2018-09-05T04:25:56.457Z,45.10
2018-09-05T04:27:01.003Z,42.35
2018-09-05T04:28:05.240Z,42.40
2018-09-05T04:29:09.453Z,43.70
2018-09-05T04:30:13.651Z,43.95
2018-09-05T04:31:17.848Z,43.13
2018-09-05T04:32:22.088Z,44.10
2018-09-05T04:33:26.251Z,44.63
2018-09-05T04:34:30.437Z,45.98
2018-09-05T04:35:34.660Z,43.48
2018-09-05T04:36:38.866Z,43.95
2018-09-05T04:37:43.087Z,43.60
2018-09-05T04:38:47.294Z,44.93
2018-09-05T04:39:51.689Z,44.45
2018-09-05T04:40:55.882Z,43.25
2018-09-05T04:42:00.119Z,42.90
2018-09-05T04:43:04.323Z,42.75
2018-09-05T04:44:08.931Z,43.65
2018-09-05T04:45:13.076Z,47.35
2018-09-05T04:46:17.364Z,43.85
2018-09-05T04:47:22.031Z,45.30
2018-09-05T04:48:26.265Z,44.08
2018-09-05T04:49:30.438Z,44.98
2018-09-05T04:50:34.631Z,44.55
2018-09-05T04:51:39.068Z,44.38
2018-09-05T04:52:43.477Z,47.67
2018-09-05T04:53:47.664Z,47.17
2018-09-05T04:54:51.922Z,47.53
2018-09-05T04:55:56.116Z,45.45
2018-09-05T04:57:00.270Z,51.13
2018-09-05T04:58:04.464Z,51.23
2018-09-05T04:59:08.841Z,49.67
2018-09-05T05:00:12.989Z,48.75
2018-09-05T05:01:17.421Z,47.40
2018-09-05T05:02:21.611Z,50.63
2018-09-05T05:03:26.190Z,50.50
2018-09-05T05:04:31.120Z,48.63
2018-09-05T05:05:35.501Z,50.52
2018-09-05T05:06:39.610Z,50.40
2018-09-05T05:07:43.778Z,48.10
2018-09-05T05:08:47.958Z,46.80
2018-09-05T05:09:52.121Z,46.63
2018-09-05T05:10:56.319Z,46.13
2018-09-05T05:12:00.455Z,48.30
2018-09-05T05:13:04.914Z,46.42
2018-09-05T05:14:09.345Z,46.40
2018-09-05T05:15:13.517Z,46.68
2018-09-05T05:16:17.690Z,47.95
2018-09-05T05:17:21.869Z,47.45
2018-09-05T05:18:26.082Z,46.42
2018-09-05T05:19:30.403Z,45.73
2018-09-05T05:20:34.773Z,46.77
2018-09-05T05:21:38.941Z,45.95
2018-09-05T05:22:43.111Z,42.95
2018-09-05T05:23:47.542Z,43.17
2018-09-05T05:24:51.730Z,45.45
2018-09-05T05:25:55.942Z,44.75
2018-09-05T05:27:00.122Z,45.73
2018-09-05T05:28:04.898Z,41.65
2018-09-05T05:29:09.129Z,43.23
2018-09-05T05:30:13.439Z,43.85
2018-09-05T05:31:17.656Z,43.80
2018-09-05T05:32:21.937Z,43.60
2018-09-05T05:33:26.401Z,44.73
2018-09-05T05:34:30.659Z,43.85
2018-09-05T05:35:34.817Z,47.55
2018-09-05T05:36:38.966Z,45.48
2018-09-05T05:37:43.297Z,42.95
2018-09-05T05:38:47.795Z,44.73
2018-09-05T05:39:51.967Z,47.23
2018-09-05T05:40:56.150Z,46.85
2018-09-05T05:42:00.373Z,44.65
2018-09-05T05:43:04.723Z,44.48
2018-09-05T05:44:08.857Z,44.18
2018-09-05T05:45:13.040Z,46.75
2018-09-05T05:46:17.311Z,45.95
2018-09-05T05:47:21.854Z,43.98
2018-09-05T05:48:26.023Z,43.33
2018-09-05T05:49:30.270Z,45.23
2018-09-05T05:50:34.468Z,43.85
2018-09-05T05:51:38.707Z,42.27
2018-09-05T05:52:42.902Z,42.43
2018-09-05T05:53:47.396Z,42.55
2018-09-05T05:54:51.594Z,40.95
2018-09-05T05:55:55.746Z,40.45
2018-09-05T05:56:59.952Z,40.00
2018-09-05T05:58:04.118Z,42.35
2018-09-05T05:59:08.315Z,41.05
2018-09-05T06:00:12.822Z,40.50
2018-09-05T06:01:17.630Z,42.13
2018-09-05T06:02:21.948Z,39.15
2018-09-05T06:03:26.292Z,42.20
2018-09-05T06:04:30.678Z,39.78
2018-09-05T06:05:35.035Z,38.98
2018-09-05T06:06:39.475Z,39.85
2018-09-05T06:07:44.020Z,40.75
2018-09-05T06:08:48.227Z,41.37
2018-09-05T06:09:52.426Z,40.60
2018-09-05T06:10:56.614Z,40.17
2018-09-05T06:12:00.777Z,41.23
2018-09-05T06:13:04.994Z,41.35
2018-09-05T06:14:09.262Z,40.80
2018-09-05T06:15:13.429Z,42.13
2018-09-05T06:16:17.726Z,42.98
2018-09-05T06:17:21.964Z,37.93
2018-09-05T06:18:26.234Z,39.98
2018-09-05T06:19:30.432Z,36.70
2018-09-05T06:20:34.658Z,35.65
2018-09-05T06:21:38.936Z,38.78
2018-09-05T06:22:43.095Z,38.45
2018-09-05T06:23:47.385Z,37.00
2018-09-05T06:24:51.609Z,36.03
2018-09-05T06:25:55.835Z,36.23
2018-09-05T06:27:00.182Z,36.58
2018-09-05T06:28:04.442Z,38.15
2018-09-05T06:29:08.676Z,38.23
2018-09-05T06:30:12.900Z,35.98
2018-09-05T06:31:17.298Z,34.03
2018-09-05T06:32:21.337Z,34.08
2018-09-05T06:33:25.642Z,33.63
2018-09-05T06:34:29.892Z,32.40
2018-09-05T06:35:34.196Z,33.23
2018-09-05T06:36:38.442Z,33.95
2018-09-05T06:37:42.649Z,34.30
2018-09-05T06:38:46.874Z,34.90
2018-09-05T06:39:51.100Z,35.83
2018-09-05T06:40:55.544Z,34.85
2018-09-05T06:41:59.708Z,33.30
2018-09-05T06:43:03.875Z,32.15
2018-09-05T06:44:08.670Z,32.40
2018-09-05T06:45:13.080Z,31.70
2018-09-05T06:46:17.485Z,35.25
2018-09-05T06:47:22.071Z,32.13
2018-09-05T06:48:26.328Z,32.03
2018-09-05T06:49:30.540Z,32.30
2018-09-05T06:50:34.816Z,33.70
2018-09-05T06:51:39.072Z,32.17
2018-09-05T06:52:43.536Z,31.68
2018-09-05T06:53:47.701Z,32.10
2018-09-05T06:54:51.911Z,31.65
2018-09-05T06:55:56.200Z,32.10
2018-09-05T06:57:00.476Z,32.70
2018-09-05T06:58:05.018Z,29.87
2018-09-05T06:59:09.236Z,30.72
2018-09-05T07:00:14.253Z,31.70
2018-09-05T07:01:18.967Z,31.37
2018-09-05T07:02:23.282Z,31.52
2018-09-05T07:03:27.880Z,30.62
2018-09-05T07:04:32.328Z,34.48
2018-09-05T07:05:36.523Z,37.35
2018-09-05T07:06:40.750Z,37.20
2018-09-05T07:07:44.985Z,35.28
2018-09-05T07:08:49.280Z,32.25
2018-09-05T07:09:53.632Z,36.38
2018-09-05T07:10:58.072Z,33.45
2018-09-05T07:12:02.319Z,33.23
2018-09-05T07:13:06.699Z,33.60
2018-09-05T07:14:11.094Z,34.75
2018-09-05T07:15:15.219Z,33.98
2018-09-05T07:16:19.510Z,35.13
2018-09-05T07:17:23.862Z,33.88
2018-09-05T07:18:28.152Z,34.38
2018-09-05T07:19:32.580Z,32.38
2018-09-05T07:20:37.241Z,32.15
2018-09-05T07:21:41.536Z,36.70
2018-09-05T07:22:45.834Z,34.75
2018-09-05T07:23:50.015Z,32.50
2018-09-05T07:24:54.281Z,32.80
2018-09-05T07:25:58.420Z,33.63
2018-09-05T07:27:02.611Z,33.98
2018-09-05T07:28:06.876Z,35.20
2018-09-05T07:29:11.117Z,35.20
2018-09-05T07:30:16.740Z,37.15
2018-09-05T07:31:20.927Z,37.90
2018-09-05T07:32:25.320Z,38.63
2018-09-05T07:33:29.556Z,36.77
2018-09-05T07:34:34.115Z,38.50
2018-09-05T07:35:38.314Z,39.90
2018-09-05T07:36:42.759Z,38.70
2018-09-05T07:37:46.989Z,36.90
2018-09-05T07:38:51.214Z,40.67
2018-09-05T07:39:55.472Z,40.03
2018-09-05T07:40:59.928Z,41.65
2018-09-05T07:42:04.293Z,40.25
2018-09-05T07:43:08.513Z,40.85
2018-09-05T07:44:12.907Z,38.55
2018-09-05T07:45:17.736Z,37.20
2018-09-05T07:46:22.031Z,38.73
2018-09-05T07:47:26.988Z,36.93
2018-09-05T07:48:31.211Z,36.10
2018-09-05T07:49:35.534Z,37.75
2018-09-05T07:50:39.888Z,38.60
2018-09-05T07:51:44.289Z,37.10
2018-09-05T07:52:49.157Z,38.28
2018-09-05T07:53:53.503Z,38.55
2018-09-05T07:54:57.920Z,38.20
2018-09-05T07:56:02.096Z,39.10
2018-09-05T07:57:06.279Z,38.73
2018-09-05T07:58:10.442Z,38.50
2018-09-05T07:59:14.801Z,39.85
2018-09-05T08:00:18.989Z,41.20
2018-09-05T08:01:23.212Z,40.50
2018-09-05T08:02:27.569Z,40.05
2018-09-05T08:03:31.730Z,42.25
2018-09-05T08:04:35.961Z,41.02
2018-09-05T08:05:40.264Z,41.35
2018-09-05T08:06:44.437Z,40.80
2018-09-05T08:07:48.583Z,40.03
2018-09-05T08:08:52.765Z,42.38
2018-09-05T08:09:56.946Z,40.50
2018-09-05T08:11:01.115Z,40.67
2018-09-05T08:12:05.328Z,41.90
2018-09-05T08:13:09.516Z,41.40
2018-09-05T08:14:13.699Z,39.67
2018-09-05T08:15:17.861Z,38.80
2018-09-05T08:16:22.270Z,40.50
2018-09-05T08:17:26.572Z,39.50
2018-09-05T08:18:30.768Z,38.83
2018-09-05T08:19:35.090Z,39.65
2018-09-05T08:20:39.266Z,39.30
2018-09-05T08:21:43.567Z,39.90
2018-09-05T08:22:47.802Z,38.13
2018-09-05T08:23:52.023Z,36.95
2018-09-05T08:24:56.213Z,39.18
2018-09-05T08:26:00.593Z,38.13
2018-09-05T08:27:04.801Z,36.75
2018-09-05T08:28:08.936Z,37.65
2018-09-05T08:29:14.462Z,37.73
2018-09-05T08:30:18.745Z,38.38
2018-09-05T08:31:23.052Z,38.00
2018-09-05T08:32:27.306Z,38.98
2018-09-05T08:33:31.491Z,39.18
2018-09-05T08:34:35.725Z,38.40
2018-09-05T08:35:40.197Z,38.17
2018-09-05T08:36:44.319Z,38.48
2018-09-05T08:37:48.510Z,37.73
2018-09-05T08:38:52.731Z,36.75
2018-09-05T08:39:56.767Z,39.20
2018-09-05T08:41:05.098Z,34.98
2018-09-05T08:42:09.497Z,36.25
2018-09-05T08:43:13.715Z,38.17
2018-09-05T08:44:17.985Z,35.78
2018-09-05T08:45:22.409Z,35.28
2018-09-05T08:46:26.339Z,36.17
2018-09-05T08:47:31.244Z,37.48
2018-09-05T08:48:35.530Z,37.70
2018-09-05T08:50:07.427Z,36.25
2018-09-05T08:51:11.670Z,36.83
2018-09-05T08:52:15.838Z,37.00
2018-09-05T08:53:20.267Z,34.05
2018-09-05T08:54:24.447Z,32.53
2018-09-05T08:55:28.765Z,32.70
2018-09-05T08:56:33.054Z,33.63
2018-09-05T08:57:37.256Z,32.78
2018-09-05T08:58:41.534Z,34.43
2018-09-05T08:59:45.720Z,33.78
2018-09-05T09:00:49.943Z,31.57
2018-09-05T09:01:54.139Z,31.97
2018-09-05T09:02:58.332Z,32.38
2018-09-05T09:04:02.470Z,29.50
2018-09-05T09:05:07.042Z,29.20
2018-09-05T09:06:11.246Z,28.40
2018-09-05T09:07:15.443Z,29.70
2018-09-05T09:08:19.657Z,29.82
2018-09-05T09:09:23.810Z,30.80
2018-09-05T09:10:28.099Z,29.97
2018-09-05T09:11:32.321Z,29.53
2018-09-05T09:12:36.588Z,29.98
2018-09-05T09:13:40.802Z,29.53
2018-09-05T09:14:44.951Z,32.57
2018-09-05T09:15:49.542Z,30.77
2018-09-05T09:16:53.807Z,32.50
2018-09-05T09:17:58.153Z,32.35
2018-09-05T09:19:02.361Z,32.70
2018-09-05T09:20:06.814Z,32.00
2018-09-05T09:21:10.989Z,32.50
2018-09-05T09:22:15.212Z,30.43
2018-09-05T09:23:19.808Z,30.37
2018-09-05T09:24:24.043Z,31.70
2018-09-05T09:25:28.308Z,30.83
2018-09-05T09:26:32.588Z,31.87
2018-09-05T09:27:37.201Z,30.50
2018-09-05T09:28:41.374Z,32.10
2018-09-05T09:29:46.383Z,32.10
2018-09-05T09:30:50.658Z,31.87
2018-09-05T09:31:54.859Z,31.23
2018-09-05T09:32:59.084Z,30.88
2018-09-05T09:34:03.671Z,28.30
2018-09-05T09:35:08.099Z,30.20
2018-09-05T09:36:12.288Z,32.13
2018-09-05T09:37:16.490Z,30.63
2018-09-05T09:38:20.644Z,30.17
2018-09-05T09:39:24.992Z,31.43
2018-09-05T09:40:29.252Z,31.20
2018-09-05T09:41:33.448Z,32.60
2018-09-05T09:42:37.657Z,30.80
2018-09-05T09:43:41.871Z,33.17
2018-09-05T09:44:46.076Z,30.70
2018-09-05T09:45:50.293Z,30.97
2018-09-05T09:46:54.509Z,29.47
2018-09-05T09:47:58.995Z,30.80
2018-09-05T09:49:03.260Z,31.10
2018-09-05T09:50:07.705Z,32.10
2018-09-05T09:51:11.935Z,31.30
2018-09-05T09:52:22.240Z,32.30
2018-09-05T09:53:26.735Z,31.43
2018-09-05T09:54:30.970Z,32.33
2018-09-05T09:55:35.200Z,32.57
2018-09-05T09:56:39.405Z,32.10
2018-09-05T09:57:43.602Z,31.13
2018-09-05T09:58:48.013Z,32.47
2018-09-05T09:59:52.141Z,32.80
2018-09-05T10:01:01.688Z,33.17
2018-09-05T10:02:11.238Z,30.47
2018-09-05T10:03:20.657Z,29.97
2018-09-05T10:04:30.235Z,33.23
2018-09-05T10:05:39.609Z,28.63
2018-09-05T10:06:48.106Z,31.00
2018-09-05T10:07:57.343Z,33.70
2018-09-05T10:09:07.125Z,29.53
2018-09-05T10:10:17.193Z,30.93
2018-09-05T10:11:25.367Z,33.17
2018-09-05T10:12:34.759Z,31.73
2018-09-05T10:13:44.225Z,30.67
2018-09-05T10:15:54.280Z,31.07
2018-09-05T10:17:03.862Z,29.87
2018-09-05T10:18:13.228Z,28.17
2018-09-05T10:19:17.782Z,30.90
2018-09-05T10:20:21.985Z,28.67
2018-09-05T10:21:26.190Z,32.90
2018-09-05T10:22:30.910Z,29.83
2018-09-05T10:23:35.055Z,33.90
2018-09-05T10:24:39.522Z,29.20
2018-09-05T10:25:43.756Z,32.17
2018-09-05T10:26:48.103Z,31.13
2018-09-05T10:27:52.356Z,30.70
2018-09-05T10:28:56.610Z,30.87
2018-09-05T10:30:00.890Z,31.77
2018-09-05T10:31:05.138Z,33.33
2018-09-05T10:32:09.344Z,34.57
2018-09-05T10:33:13.759Z,32.53
2018-09-05T10:34:17.929Z,34.77
2018-09-05T10:35:22.186Z,33.70
2018-09-05T10:36:26.366Z,32.57
2018-09-05T10:37:30.865Z,33.43
2018-09-05T10:38:35.273Z,32.70
2018-09-05T10:39:39.464Z,32.17
2018-09-05T10:40:43.842Z,32.20
2018-09-05T10:41:48.164Z,35.03
2018-09-05T10:42:52.362Z,34.60
2018-09-05T10:43:56.571Z,35.43
2018-09-05T10:45:00.785Z,35.40
2018-09-05T10:46:04.974Z,37.37
2018-09-05T10:47:09.171Z,36.57
2018-09-05T10:48:14.583Z,34.27
2018-09-05T10:49:18.957Z,35.13
2018-09-05T10:50:23.166Z,35.57
2018-09-05T10:51:32.600Z,35.87
2018-09-05T10:52:36.804Z,35.23
2018-09-05T10:53:41.003Z,34.87
2018-09-05T10:54:45.182Z,34.70
2018-09-05T10:55:49.520Z,35.87
2018-09-05T10:56:53.700Z,34.47
2018-09-05T10:57:57.993Z,34.70
2018-09-05T10:59:02.187Z,34.43
2018-09-05T11:00:06.474Z,35.10
2018-09-05T11:01:10.669Z,35.60
2018-09-05T11:02:14.838Z,33.17
2018-09-05T11:03:19.010Z,32.73
2018-09-05T11:04:23.294Z,31.63
2018-09-05T11:05:27.473Z,34.30
2018-09-05T11:06:31.626Z,35.67
2018-09-05T11:07:35.776Z,36.53
2018-09-05T11:08:39.944Z,35.83
2018-09-05T11:09:44.146Z,34.60
2018-09-05T11:10:48.387Z,36.60
2018-09-05T11:11:52.496Z,32.97
2018-09-05T11:12:56.658Z,32.17
2018-09-05T11:14:00.848Z,32.63
2018-09-05T11:15:05.047Z,36.13
2018-09-05T11:16:09.221Z,33.20
2018-09-05T11:17:13.426Z,32.40
2018-09-05T11:18:17.557Z,34.73
2018-09-05T11:19:21.784Z,31.30
2018-09-05T11:20:25.981Z,33.07
2018-09-05T11:21:30.238Z,31.60
2018-09-05T11:22:34.476Z,32.00
2018-09-05T11:23:45.300Z,30.37
2018-09-05T11:24:49.673Z,30.53
2018-09-05T11:25:53.894Z,29.20
2018-09-05T11:26:58.240Z,26.23
2018-09-05T11:28:02.529Z,29.10
2018-09-05T11:29:07.056Z,27.93
2018-09-05T11:30:11.167Z,27.60
2018-09-05T11:31:15.421Z,28.30
2018-09-05T11:32:19.626Z,28.93
2018-09-05T11:33:23.786Z,30.67
2018-09-05T11:34:27.973Z,31.73
2018-09-05T11:35:32.144Z,30.10
2018-09-05T11:36:36.382Z,29.27
2018-09-05T11:37:40.619Z,28.93
2018-09-05T11:38:44.894Z,30.80
2018-09-05T11:39:49.043Z,29.10
2018-09-05T11:40:53.304Z,30.33
2018-09-05T11:41:57.495Z,28.83
2018-09-05T11:43:01.706Z,27.73
2018-09-05T11:44:06.251Z,28.20
2018-09-05T11:45:10.441Z,27.97
2018-09-05T11:46:14.978Z,28.43
2018-09-05T11:47:19.204Z,26.30
2018-09-05T11:48:23.702Z,27.33
2018-09-05T11:49:27.889Z,28.27
2018-09-05T11:50:32.084Z,27.17
2018-09-05T11:51:36.642Z,27.73
2018-09-05T11:52:40.884Z,26.63
2018-09-05T11:53:45.068Z,26.97
2018-09-05T11:54:49.264Z,26.50
2018-09-05T11:55:53.430Z,26.80
2018-09-05T11:56:57.609Z,28.40
2018-09-05T11:58:01.831Z,26.63
2018-09-05T11:59:06.021Z,26.60
2018-09-05T12:00:10.259Z,28.37
2018-09-05T12:01:14.431Z,27.80
2018-09-05T12:02:18.828Z,29.00
2018-09-05T12:03:23.009Z,28.83
2018-09-05T12:04:27.200Z,30.90
2018-09-05T12:05:31.392Z,28.87
2018-09-05T12:06:35.763Z,30.67
2018-09-05T12:07:39.929Z,28.47
2018-09-05T12:08:44.173Z,28.93
2018-09-05T12:09:48.350Z,29.60
2018-09-05T12:10:52.575Z,27.87
2018-09-05T12:11:56.798Z,30.07
2018-09-05T12:13:00.949Z,27.53
2018-09-05T12:14:05.167Z,27.03
2018-09-05T12:15:09.360Z,28.77
2018-09-05T12:16:13.542Z,29.00
2018-09-05T12:17:17.794Z,27.10
2018-09-05T12:18:21.974Z,27.70
2018-09-05T12:19:26.203Z,28.13
2018-09-05T12:20:30.430Z,27.10
2018-09-05T12:21:34.603Z,26.23
2018-09-05T12:22:38.825Z,29.20
2018-09-05T12:23:43.010Z,27.57
2018-09-05T12:24:47.276Z,27.23
2018-09-05T12:25:51.487Z,26.37
2018-09-05T12:26:55.665Z,27.07
2018-09-05T12:27:59.862Z,25.87
2018-09-05T12:29:06.658Z,25.73
2018-09-05T12:30:11.047Z,24.20
2018-09-05T12:31:15.211Z,24.93
2018-09-05T12:32:19.515Z,26.80
2018-09-05T12:33:23.799Z,25.67
2018-09-05T12:34:27.999Z,23.80
2018-09-05T12:35:32.249Z,23.13
2018-09-05T12:36:36.463Z,24.20
2018-09-05T12:37:40.843Z,23.43
2018-09-05T12:38:44.988Z,24.17
2018-09-05T12:39:49.233Z,22.77
2018-09-05T12:40:53.668Z,23.70
2018-09-05T12:41:57.880Z,21.40
2018-09-05T12:43:02.121Z,21.67
2018-09-05T12:44:06.308Z,21.97
2018-09-05T12:45:10.864Z,23.33
2018-09-05T12:46:15.074Z,22.83
2018-09-05T12:47:19.350Z,22.93
2018-09-05T12:48:23.862Z,23.80
2018-09-05T12:49:28.259Z,22.60
2018-09-05T12:50:32.452Z,21.00
2018-09-05T12:51:36.689Z,20.83
2018-09-05T12:52:40.880Z,21.77
2018-09-05T12:53:45.063Z,22.10
2018-09-05T12:54:49.650Z,21.07
2018-09-05T12:55:53.874Z,22.10
2018-09-05T12:56:58.071Z,22.60
2018-09-05T12:58:02.262Z,23.20
2018-09-05T12:59:06.650Z,22.10
2018-09-05T13:00:10.868Z,21.80
2018-09-05T13:01:15.187Z,22.30
2018-09-05T13:02:19.449Z,22.97
2018-09-05T13:03:23.819Z,22.33
2018-09-05T13:04:28.021Z,22.30
2018-09-05T13:05:32.249Z,22.67
2018-09-05T13:06:36.879Z,20.60
2018-09-05T13:07:41.405Z,21.40
2018-09-05T13:08:45.568Z,20.10
2018-09-05T13:09:49.757Z,21.60
2018-09-05T13:10:53.972Z,21.40
2018-09-05T13:11:58.176Z,20.10
2018-09-05T13:13:02.522Z,21.80
2018-09-05T13:14:06.720Z,23.07
2018-09-05T13:15:11.347Z,20.80
2018-09-05T13:16:15.893Z,21.00
2018-09-05T13:17:20.225Z,21.37
2018-09-05T13:18:24.414Z,21.67
2018-09-05T13:19:28.684Z,21.57
2018-09-05T13:20:32.853Z,21.90
2018-09-05T13:21:37.090Z,21.20
2018-09-05T13:22:41.262Z,19.10
2018-09-05T13:23:45.514Z,21.30
2018-09-05T13:24:50.189Z,20.43
2018-09-05T13:25:54.590Z,22.53
2018-09-05T13:26:59.086Z,21.80
2018-09-05T13:28:03.196Z,23.00
2018-09-05T13:29:07.406Z,22.50
2018-09-05T13:30:11.598Z,22.80
2018-09-05T13:31:15.789Z,21.90
2018-09-05T13:32:19.936Z,24.10
2018-09-05T13:33:24.267Z,23.20
2018-09-05T13:34:28.491Z,20.20
2018-09-05T13:35:32.733Z,21.90
2018-09-05T13:36:36.922Z,21.23
2018-09-05T13:37:41.082Z,20.70
2018-09-05T13:38:45.248Z,20.60
2018-09-05T13:39:49.517Z,20.43
2018-09-05T13:40:53.728Z,19.00
2018-09-05T13:41:57.908Z,20.87
2018-09-05T13:43:02.054Z,18.80
2018-09-05T13:44:06.543Z,19.53
2018-09-05T13:45:10.840Z,21.90
2018-09-05T13:46:15.027Z,20.67
2018-09-05T13:47:19.208Z,23.27
2018-09-05T13:48:23.609Z,21.10
2018-09-05T13:49:27.802Z,20.40
2018-09-05T13:50:32.605Z,20.90
2018-09-05T13:51:36.829Z,20.20